Main page
Satellite images 15-day forecastsClimateMarine weather Cyclones Lightning AirportsFAQ Newsletter About
Weather : Europe Africa North America South America Asia Australia-Oceania Others
Languages Contact

Gdańsk, Poland

Lech Wałęsa

latitude: 54-23N, longitude: 018-28E, elevation: 135 m


METAR: EPGD 312330Z VRB02KT 4000 BR BKN006 05/05 Q1024
TAF: EPGD 312330Z 0100/0124 17003KT 5000 DZ BR BKN005 OVC017 TEMPO 0100/0124 3000 BR BKN002 PROB40 0101/0106 0600 FG OVC001

Time: 01:03 (00:03 UTC)

Current weather observation

The report was made 33 minutes ago, at 23:30 UTC
Wind 2 kt from variable directions
Temperature 5°C
Humidity 100%
Pressure 1024 hPa
Visibility: 4000 m
Broken clouds at a height of 600 ft
mist

Change units

Forecast

The report was made 33 minutes ago, at 23:30 UTC
Forecast valid from 01 at 00 UTC to 01 at 24 UTC
Wind 3 kt from the South
Visibility: 5000 m
Broken clouds at a height of 500 ft
Overcast at a height of 1700 ft
drizzle and mist
Temporary
from 01 at 00 UTC to 01 at 24 UTC
Visibility: 3000 m
Broken clouds at a height of 200 ft
mist
Probability 40%
from 01 at 01 UTC to 01 at 06 UTC
Visibility: 0600 m
Overcast at a height of 100 ft
fog
The information on this site is subject to a disclaimer
Weather : Europe Africa North America South America Asia Australia-Oceania Others
Satellite images 15-day forecastsClimateMarine weather Cyclones Lightning AirportsFAQ Languages Contact Newsletter About